Time;durP1;ratioP1;P1;durP2;ratioP2;P2;SDS_P1;SDS_P2;PMS_P1;PMS_P2;Temp;Humidity;BMP_temperature;BMP_pressure;BME280_temperature;BME280_humidity;BME280_pressure;Samples;Min_cycle;Max_cycle;Signal;HPM_P1;HPM_P2
2022/07/27 00:00:55;;;;;;;1.33;0.60;;;;;;;18.63;74.61;100959.47;5014512;28;20037;-70
2022/07/27 00:03:26;;;;;;;0.35;0.25;;;;;;;18.54;74.76;100972.75;5014587;28;20130;-69
2022/07/27 00:05:55;;;;;;;0.60;0.30;;;;;;;18.53;74.78;100960.31;5015109;28;20041;-69
2022/07/27 00:08:23;;;;;;;0.52;0.35;;;;;;;18.50;75.06;100969.31;5034163;28;20124;-69
2022/07/27 00:10:51;;;;;;;1.45;0.70;;;;;;;18.33;76.20;100972.88;5033993;28;20037;-69
2022/07/27 00:13:17;;;;;;;1.10;0.35;;;;;;;18.33;75.74;100969.41;5032471;28;20405;-71
2022/07/27 00:15:46;;;;;;;0.65;0.28;;;;;;;18.27;76.84;100968.25;5013192;28;20556;-71
2022/07/27 00:18:14;;;;;;;3.05;0.43;;;;;;;18.21;77.04;100972.56;5029453;28;20432;-69
2022/07/27 00:20:44;;;;;;;1.17;0.28;;;;;;;18.19;77.42;100969.47;5013043;28;20406;-69
2022/07/27 00:23:13;;;;;;;1.08;0.50;;;;;;;18.16;77.78;100965.59;5013343;28;20040;-69
2022/07/27 00:25:41;;;;;;;3.03;0.40;;;;;;;18.19;77.91;100972.19;5013301;28;20029;-70
2022/07/27 00:28:07;;;;;;;0.68;0.40;;;;;;;18.15;78.16;100961.31;5013879;28;20398;-69
2022/07/27 00:30:37;;;;;;;0.68;0.32;;;;;;;18.10;78.25;100969.13;5014009;28;20106;-69
2022/07/27 00:33:05;;;;;;;1.58;0.43;;;;;;;18.24;77.62;100969.81;5016914;28;20068;-69
2022/07/27 00:35:43;;;;;;;0.57;0.45;;;;;;;18.27;77.63;100968.25;5033140;28;20083;-70
2022/07/27 00:38:10;;;;;;;1.52;0.30;;;;;;;18.29;77.52;100974.09;5033497;28;20394;-69
2022/07/27 00:40:36;;;;;;;1.38;0.60;;;;;;;18.34;77.18;100963.53;5032247;28;20386;-69
2022/07/27 00:43:05;;;;;;;0.80;0.22;;;;;;;18.48;76.46;100960.75;5020205;28;20037;-69
2022/07/27 00:45:32;;;;;;;1.13;0.40;;;;;;;18.48;76.09;100970.88;5012960;28;20072;-69
2022/07/27 00:47:58;;;;;;;1.20;0.30;;;;;;;18.52;75.82;100963.44;5013435;28;20746;-70
2022/07/27 00:50:26;;;;;;;0.28;0.28;;;;;;;18.48;75.78;100968.16;5014224;28;20037;-69
2022/07/27 00:52:57;;;;;;;1.58;0.40;;;;;;;18.48;76.32;100958.03;5013419;28;20068;-73
2022/07/27 00:55:26;;;;;;;3.38;0.43;;;;;;;18.41;76.49;100962.69;5012822;28;20034;-69
2022/07/27 00:57:52;;;;;;;2.05;0.63;;;;;;;18.43;76.74;100965.81;5013574;28;20026;-69
2022/07/27 01:00:17;;;;;;;0.98;0.40;;;;;;;18.54;76.12;100969.28;5013790;28;20510;-69
2022/07/27 01:02:45;;;;;;;1.95;0.65;;;;;;;18.49;76.38;100975.16;5013379;28;20395;-69
2022/07/27 01:05:12;;;;;;;1.17;0.32;;;;;;;18.44;76.50;100965.44;5012398;28;20038;-69
2022/07/27 01:07:41;;;;;;;0.32;0.13;;;;;;;18.45;76.64;100960.75;5017187;28;20036;-70
2022/07/27 01:10:10;;;;;;;0.43;0.25;;;;;;;18.46;76.71;100960.38;5031478;28;20072;-70
2022/07/27 01:12:38;;;;;;;1.40;0.50;;;;;;;18.44;77.40;100961.94;5014954;28;20052;-69
2022/07/27 01:15:08;;;;;;;1.30;0.50;;;;;;;18.49;77.28;100958.78;5032105;28;20099;-68
2022/07/27 01:17:36;;;;;;;1.67;0.47;;;;;;;18.50;77.03;100963.84;5032797;28;20105;-69
2022/07/27 01:20:04;;;;;;;0.82;0.40;;;;;;;18.46;76.91;100965.03;5032656;28;20027;-69
2022/07/27 01:22:40;;;;;;;0.30;0.30;;;;;;;18.48;76.61;100965.41;5032599;28;20060;-70
2022/07/27 01:25:06;;;;;;;1.10;0.40;;;;;;;18.47;76.88;100966.59;5031416;28;20084;-71
2022/07/27 01:27:32;;;;;;;1.27;0.20;;;;;;;18.39;76.23;100962.34;5032562;28;20429;-70
2022/07/27 01:29:59;;;;;;;0.50;0.20;;;;;;;18.35;76.44;100965.06;5032473;28;20038;-70
2022/07/27 01:32:25;;;;;;;1.98;0.63;;;;;;;18.40;75.38;100967.41;5031504;28;20025;-68
2022/07/27 01:34:53;;;;;;;0.40;0.30;;;;;;;18.33;75.54;100958.47;5030188;28;20787;-71
2022/07/27 01:37:21;;;;;;;2.83;0.40;;;;;;;18.32;75.44;100954.97;5031091;28;20025;-69
2022/07/27 01:39:46;;;;;;;2.22;0.45;;;;;;;18.31;73.97;100958.09;5031050;28;20040;-69
2022/07/27 01:42:12;;;;;;;1.80;0.45;;;;;;;18.22;74.65;100952.31;5032175;28;20429;-69
2022/07/27 01:44:39;;;;;;;1.55;0.32;;;;;;;18.31;74.26;100945.22;5030168;28;20454;-69
2022/07/27 01:47:09;;;;;;;3.22;0.50;;;;;;;18.34;73.78;100960.03;5030535;28;20026;-69
2022/07/27 01:49:38;;;;;;;0.93;0.90;;;;;;;18.25;73.98;100955.03;5032239;28;20041;-69
2022/07/27 01:52:14;;;;;;;0.17;0.17;;;;;;;18.24;74.83;100945.28;5031613;28;20041;-70
2022/07/27 01:54:47;;;;;;;0.50;0.47;;;;;;;18.35;74.27;100959.63;5031458;28;20121;-71
2022/07/27 01:57:13;;;;;;;0.40;0.28;;;;;;;18.33;73.83;100959.25;5031769;28;20033;-69
2022/07/27 01:59:44;;;;;;;1.52;0.73;;;;;;;18.20;74.77;100951.91;5030621;28;20116;-69
2022/07/27 02:02:15;;;;;;;0.60;0.30;;;;;;;18.25;74.95;100957.75;5031857;28;20044;-71
2022/07/27 02:04:45;;;;;;;3.92;0.50;;;;;;;18.29;75.16;100955.75;5031034;28;20117;-72
2022/07/27 02:07:11;;;;;;;3.10;0.47;;;;;;;18.21;75.17;100948.81;5031903;28;20033;-69
2022/07/27 02:09:39;;;;;;;0.38;0.38;;;;;;;18.29;74.81;100953.03;5031890;28;20036;-70
2022/07/27 02:14:53;;;;;;;1.02;0.40;;;;;;;18.38;74.51;100947.94;5024771;22;20501;-67
2022/07/27 02:17:21;;;;;;;0.90;0.20;;;;;;;18.37;73.89;100949.09;5007916;28;20409;-67
2022/07/27 02:19:50;;;;;;;0.80;0.20;;;;;;;18.31;74.43;100950.69;5011665;28;20470;-68
2022/07/27 02:22:17;;;;;;;0.73;0.30;;;;;;;18.29;74.46;100944.09;5011212;28;20410;-69
2022/07/27 02:24:43;;;;;;;0.60;0.38;;;;;;;18.29;74.59;100949.53;5010734;28;20037;-67
2022/07/27 02:27:18;;;;;;;1.20;0.63;;;;;;;18.27;74.84;100947.22;5011635;28;20127;-68
2022/07/27 02:29:44;;;;;;;0.22;0.22;;;;;;;18.26;75.32;100950.31;5011678;28;20041;-68
2022/07/27 02:32:11;;;;;;;1.00;0.20;;;;;;;18.23;75.46;100943.75;5010926;28;20834;-68
2022/07/27 02:34:37;;;;;;;1.83;0.60;;;;;;;18.13;75.71;100941.84;5009648;28;20045;-67
2022/07/27 02:37:02;;;;;;;0.70;0.20;;;;;;;17.99;76.60;100948.16;5009764;28;20490;-68
2022/07/27 02:39:33;;;;;;;1.75;0.40;;;;;;;18.05;76.65;100943.06;5011452;28;20057;-67
2022/07/27 02:41:58;;;;;;;0.30;0.30;;;;;;;18.05;76.66;100943.06;5011461;28;20037;-68
2022/07/27 02:44:26;;;;;;;1.55;0.43;;;;;;;18.08;76.58;100942.25;5010963;28;20056;-68
2022/07/27 02:46:55;;;;;;;0.95;0.50;;;;;;;18.02;76.91;100944.63;5006444;28;20469;-67
2022/07/27 02:49:21;;;;;;;1.77;0.57;;;;;;;17.91;77.05;100946.63;4991816;28;20022;-67
2022/07/27 02:51:53;;;;;;;2.28;0.43;;;;;;;17.75;78.45;100946.31;4991841;28;20473;-68
2022/07/27 02:54:34;;;;;;;0.60;0.40;;;;;;;17.79;78.70;100938.13;4996929;28;20053;-68
2022/07/27 02:57:03;;;;;;;0.10;0.10;;;;;;;17.82;79.07;100935.41;5010873;28;20096;-68
2022/07/27 02:59:32;;;;;;;0.68;0.20;;;;;;;17.81;78.90;100939.28;5009926;28;20042;-68
2022/07/27 03:02:00;;;;;;;0.70;0.55;;;;;;;17.88;77.91;100938.47;5011122;28;20472;-68
2022/07/27 03:04:25;;;;;;;0.30;0.30;;;;;;;17.84;78.69;100935.00;5000665;28;20066;-67
2022/07/27 03:07:00;;;;;;;2.13;0.50;;;;;;;17.89;78.22;100945.47;4991112;28;20038;-67
2022/07/27 03:09:25;;;;;;;1.10;0.30;;;;;;;17.87;78.47;100936.91;4991287;28;20038;-67
2022/07/27 03:11:54;;;;;;;0.30;0.28;;;;;;;17.92;78.03;100942.72;4991787;28;20034;-68
2022/07/27 03:14:20;;;;;;;3.05;0.75;;;;;;;18.00;77.54;100944.25;5007678;28;20046;-68
2022/07/27 03:16:52;;;;;;;2.45;0.65;;;;;;;17.92;77.31;100937.28;4993411;28;20132;-67
2022/07/27 03:19:18;;;;;;;0.40;0.22;;;;;;;17.95;77.17;100946.63;5011233;28;20033;-68
2022/07/27 03:21:45;;;;;;;1.10;0.20;;;;;;;17.95;77.17;100943.88;4997300;28;20026;-68
2022/07/27 03:24:13;;;;;;;0.75;0.43;;;;;;;17.84;77.76;100946.69;4990982;28;20431;-68
2022/07/27 03:26:39;;;;;;;4.72;0.65;;;;;;;17.86;76.77;100949.00;5006205;28;20041;-67
2022/07/27 03:29:13;;;;;;;4.03;0.25;;;;;;;17.96;76.08;100948.94;4991351;28;20390;-68
2022/07/27 03:31:43;;;;;;;0.30;0.15;;;;;;;18.02;76.06;100946.59;5009242;28;20096;-68
2022/07/27 03:34:10;;;;;;;0.20;0.10;;;;;;;18.02;75.92;100955.53;5014112;28;20041;-67
2022/07/27 03:36:36;;;;;;;0.65;0.50;;;;;;;18.04;74.98;100955.91;5014068;28;20030;-67
2022/07/27 03:39:04;;;;;;;0.47;0.22;;;;;;;18.01;75.36;100959.44;4994838;28;20384;-68
2022/07/27 03:41:33;;;;;;;0.20;0.20;;;;;;;18.01;74.47;100962.16;4993752;28;20034;-68
2022/07/27 03:43:58;;;;;;;2.67;0.38;;;;;;;18.09;74.25;100965.63;4993779;28;20126;-68
2022/07/27 03:46:24;;;;;;;1.20;0.47;;;;;;;18.08;74.67;100960.59;4995741;28;20568;-67
2022/07/27 03:48:51;;;;;;;0.90;0.20;;;;;;;18.13;75.02;100971.84;5014403;28;20022;-67
2022/07/27 03:51:31;;;;;;;1.65;0.73;;;;;;;18.06;75.63;100960.19;5013497;28;20229;-68
2022/07/27 03:53:57;;;;;;;0.65;0.40;;;;;;;17.98;75.63;100957.50;5013075;28;20045;-68
2022/07/27 03:56:23;;;;;;;0.45;0.20;;;;;;;18.08;74.93;100963.31;5006842;28;20509;-68
2022/07/27 03:58:50;;;;;;;1.02;0.38;;;;;;;18.08;74.52;100957.84;4994584;28;20030;-67
2022/07/27 04:01:16;;;;;;;1.77;0.20;;;;;;;17.99;75.31;100952.81;4994422;28;20049;-67
2022/07/27 04:03:44;;;;;;;2.65;0.20;;;;;;;17.96;75.17;100954.38;4994351;28;20038;-68
2022/07/27 04:06:12;;;;;;;1.08;0.50;;;;;;;17.92;76.41;100955.59;5007583;28;20095;-68
2022/07/27 04:08:38;;;;;;;0.15;0.15;;;;;;;17.87;76.61;100954.06;5014088;28;20042;-68
2022/07/27 04:11:06;;;;;;;2.85;0.32;;;;;;;17.96;76.34;100954.38;5012924;28;20046;-67
2022/07/27 04:13:36;;;;;;;0.20;0.20;;;;;;;17.94;76.48;100955.97;5013312;28;20109;-68
2022/07/27 04:16:08;;;;;;;0.60;0.50;;;;;;;17.93;76.64;100955.19;5008859;28;20188;-68
2022/07/27 04:18:36;;;;;;;0.75;0.30;;;;;;;18.00;75.76;100963.31;4994306;28;20070;-68
2022/07/27 04:21:05;;;;;;;0.28;0.20;;;;;;;17.86;77.29;100959.91;4994088;28;20026;-68
2022/07/27 04:23:32;;;;;;;1.00;0.35;;;;;;;17.88;77.22;100966.53;4994671;28;20045;-68
2022/07/27 04:25:58;;;;;;;0.20;0.20;;;;;;;17.84;77.75;100965.75;4993867;28;20489;-68
2022/07/27 04:28:24;;;;;;;2.85;0.40;;;;;;;17.93;77.17;100971.53;4994075;28;20041;-68
2022/07/27 04:30:50;;;;;;;1.17;0.47;;;;;;;17.89;77.88;100967.28;4994593;28;20065;-68
2022/07/27 04:33:18;;;;;;;1.48;0.22;;;;;;;17.82;78.23;100970.81;4994657;28;20529;-68
2022/07/27 04:35:44;;;;;;;0.75;0.25;;;;;;;17.86;77.81;100968.88;5011821;28;20057;-68
2022/07/27 04:38:14;;;;;;;2.83;0.57;;;;;;;17.78;78.29;100967.34;5013671;28;20029;-67
2022/07/27 04:40:41;;;;;;;1.65;0.40;;;;;;;17.79;78.50;100971.59;4994683;28;20042;-68
2022/07/27 04:43:07;;;;;;;0.43;0.30;;;;;;;17.92;77.53;100971.94;4993318;28;20414;-67
2022/07/27 04:45:34;;;;;;;1.55;0.52;;;;;;;18.02;76.79;100973.84;4992177;28;20030;-68
2022/07/27 04:48:11;;;;;;;1.55;0.20;;;;;;;17.97;77.06;100972.31;5000740;28;20470;-67
2022/07/27 04:50:42;;;;;;;0.50;0.30;;;;;;;17.88;76.27;100971.19;5013218;28;20121;-68
2022/07/27 04:53:12;;;;;;;1.85;0.20;;;;;;;17.90;77.01;100969.59;5013302;28;20040;-68
2022/07/27 04:55:45;;;;;;;1.40;0.22;;;;;;;17.96;76.52;100981.66;5012551;28;20033;-68
2022/07/27 04:58:12;;;;;;;0.45;0.30;;;;;;;17.97;76.81;100974.25;5012782;28;20498;-68
2022/07/27 05:00:42;;;;;;;1.10;0.30;;;;;;;17.98;76.19;100978.53;5013100;28;20029;-68
2022/07/27 05:03:11;;;;;;;0.98;0.15;;;;;;;17.97;76.68;100975.03;5013111;28;20095;-68
2022/07/27 05:05:42;;;;;;;1.90;0.30;;;;;;;18.09;75.85;100964.84;5012048;28;20402;-68
2022/07/27 05:08:12;;;;;;;1.65;0.43;;;;;;;18.08;75.67;100980.41;5012815;28;20034;-68
2022/07/27 05:10:40;;;;;;;0.30;0.20;;;;;;;18.03;74.98;100970.72;5012805;28;20033;-68
2022/07/27 05:13:05;;;;;;;1.65;0.70;;;;;;;18.02;75.68;100979.31;5012785;28;20034;-68
2022/07/27 05:15:31;;;;;;;0.10;0.10;;;;;;;18.10;75.43;100977.31;5011890;28;20402;-68
2022/07/27 05:18:02;;;;;;;3.53;0.68;;;;;;;18.13;75.11;100982.75;5012800;28;20033;-68
2022/07/27 05:20:30;;;;;;;0.75;0.30;;;;;;;18.16;75.06;100978.44;5012497;28;20038;-68
2022/07/27 05:22:56;;;;;;;0.10;0.10;;;;;;;18.00;76.07;100979.69;4999404;28;20030;-68
2022/07/27 05:25:25;;;;;;;1.90;0.22;;;;;;;18.14;76.04;100983.53;4991220;28;20026;-68
2022/07/27 05:27:56;;;;;;;2.15;0.30;;;;;;;18.12;76.51;100994.06;5007807;28;20053;-68
2022/07/27 05:30:25;;;;;;;3.85;0.57;;;;;;;18.12;76.04;100991.34;4992772;28;20042;-69
2022/07/27 05:32:51;;;;;;;0.13;0.10;;;;;;;18.25;75.61;100982.31;5007697;28;20034;-68
2022/07/27 05:35:19;;;;;;;2.08;0.47;;;;;;;18.26;76.67;100983.84;5008516;28;20111;-68
2022/07/27 05:37:45;;;;;;;0.70;0.55;;;;;;;18.58;75.87;100992.63;5012558;28;20071;-68
2022/07/27 05:40:11;;;;;;;2.25;0.40;;;;;;;18.69;74.75;100995.28;5012371;28;20049;-68
2022/07/27 05:42:43;;;;;;;0.30;0.20;;;;;;;18.87;74.10;100985.00;4992034;28;20392;-68
2022/07/27 05:45:10;;;;;;;2.00;0.50;;;;;;;19.07;73.18;100983.25;4992160;28;20452;-68
2022/07/27 05:47:35;;;;;;;0.30;0.25;;;;;;;19.23;71.50;101007.31;4992587;28;20033;-68
2022/07/27 05:50:03;;;;;;;0.20;0.20;;;;;;;19.30;71.28;100999.81;5006850;28;20046;-68
2022/07/27 05:52:37;;;;;;;0.30;0.30;;;;;;;19.46;72.46;101000.09;5007697;28;20125;-68
2022/07/27 05:55:06;;;;;;;2.33;0.40;;;;;;;19.55;70.82;101007.81;4991443;28;20546;-68
2022/07/27 05:57:35;;;;;;;0.98;0.30;;;;;;;19.48;69.80;101008.66;4996300;28;20056;-68
2022/07/27 06:00:03;;;;;;;0.52;0.20;;;;;;;19.45;70.05;101001.25;5010883;28;20080;-68
2022/07/27 06:02:37;;;;;;;1.13;0.57;;;;;;;19.45;70.18;101008.69;5011928;28;20030;-68
2022/07/27 06:05:04;;;;;;;0.25;0.22;;;;;;;19.35;70.45;101012.28;5011235;28;20537;-69
2022/07/27 06:10:17;;;;;;;2.20;0.50;;;;;;;19.32;70.87;101016.59;5011835;28;20094;-68
2022/07/27 06:12:44;;;;;;;0.50;0.30;;;;;;;19.32;70.23;101021.25;4994270;28;20038;-68
2022/07/27 06:15:12;;;;;;;0.57;0.35;;;;;;;19.30;70.25;101018.19;5002072;28;20029;-68
2022/07/27 06:17:51;;;;;;;2.85;0.40;;;;;;;19.28;69.95;101017.81;4992378;28;20053;-68
2022/07/27 06:20:21;;;;;;;1.35;0.60;;;;;;;19.23;70.67;101027.22;4992171;28;20046;-69
2022/07/27 06:22:50;;;;;;;1.33;0.55;;;;;;;19.21;71.63;101017.84;5007307;28;20042;-68
2022/07/27 06:25:23;;;;;;;2.15;0.40;;;;;;;19.26;72.05;101022.91;5010431;28;20034;-68
2022/07/27 06:27:49;;;;;;;0.32;0.20;;;;;;;19.30;71.27;101031.84;5011782;28;20072;-68
2022/07/27 06:30:17;;;;;;;1.52;0.35;;;;;;;19.15;72.20;101035.84;5011595;28;20070;-68
2022/07/27 06:32:43;;;;;;;0.20;0.15;;;;;;;19.15;72.82;101036.63;5025082;28;20037;-68
2022/07/27 06:35:10;;;;;;;0.22;0.20;;;;;;;19.23;71.62;101045.53;5006644;28;20041;-68
2022/07/27 06:37:36;;;;;;;1.02;0.47;;;;;;;19.32;72.26;101049.38;5011718;28;20029;-68
2022/07/27 06:40:03;;;;;;;1.90;0.40;;;;;;;19.32;72.97;101057.59;5011370;28;20034;-68
2022/07/27 06:42:29;;;;;;;0.32;0.22;;;;;;;19.12;75.14;101062.03;5010800;28;20363;-68
2022/07/27 06:44:55;;;;;;;1.00;0.30;;;;;;;19.06;74.95;101047.25;5026152;28;20587;-68
2022/07/27 06:47:21;;;;;;;0.30;0.20;;;;;;;19.09;74.76;101049.16;5011737;28;20063;-67
2022/07/27 06:49:47;;;;;;;0.40;0.30;;;;;;;18.97;74.83;101055.09;5009782;28;20026;-69
2022/07/27 06:52:13;;;;;;;0.50;0.30;;;;;;;19.00;75.35;101048.84;4990208;28;20375;-68
2022/07/27 06:54:38;;;;;;;1.35;0.10;;;;;;;19.18;74.96;101046.00;4991042;28;20037;-68
2022/07/27 06:57:04;;;;;;;0.63;0.17;;;;;;;19.28;75.09;101048.59;4991699;28;20483;-68
2022/07/27 06:59:31;;;;;;;3.22;0.88;;;;;;;19.42;73.99;101053.97;5004869;28;20145;-68
2022/07/27 07:01:57;;;;;;;2.17;0.32;;;;;;;19.56;72.77;101045.66;5011268;28;20045;-67
2022/07/27 07:04:22;;;;;;;0.15;0.15;;;;;;;19.68;71.20;101050.63;5011113;28;20026;-68
2022/07/27 07:06:49;;;;;;;6.28;0.35;;;;;;;19.72;70.08;101059.53;5012084;28;20030;-68
2022/07/27 07:09:14;;;;;;;0.40;0.15;;;;;;;19.68;69.84;101056.09;4996816;28;20513;-69
2022/07/27 07:11:40;;;;;;;0.20;0.10;;;;;;;19.62;69.38;101056.91;4995678;28;20042;-68
2022/07/27 07:14:05;;;;;;;0.10;0.10;;;;;;;19.66;69.07;101060.41;4995379;28;20038;-68
2022/07/27 07:16:31;;;;;;;0.20;0.20;;;;;;;19.56;68.65;101053.84;5006868;28;20032;-68
2022/07/27 07:18:56;;;;;;;0.82;0.35;;;;;;;19.54;68.83;101058.16;5014824;28;20033;-69
2022/07/27 07:21:22;;;;;;;0.50;0.30;;;;;;;19.53;69.21;101057.38;5015366;28;20037;-68
2022/07/27 07:23:47;;;;;;;2.60;0.50;;;;;;;19.57;68.27;101060.84;5019529;28;20426;-68
2022/07/27 07:26:13;;;;;;;0.40;0.20;;;;;;;19.60;68.95;101062.78;4995202;28;20034;-68
2022/07/27 07:28:38;;;;;;;1.10;0.38;;;;;;;19.60;68.09;101072.94;4995219;28;20081;-68
2022/07/27 07:31:04;;;;;;;2.75;0.50;;;;;;;19.69;66.96;101062.31;4994004;28;20049;-68
2022/07/27 07:33:30;;;;;;;1.80;0.20;;;;;;;19.76;67.10;101067.72;5012754;28;20037;-68
2022/07/27 07:35:55;;;;;;;2.00;0.50;;;;;;;19.74;67.12;101061.88;5012882;28;20029;-68
2022/07/27 07:38:21;;;;;;;0.30;0.30;;;;;;;19.77;66.78;101067.31;5014726;28;20483;-68
2022/07/27 07:40:46;;;;;;;0.50;0.13;;;;;;;19.89;65.97;101060.53;5013987;28;20076;-68
2022/07/27 07:43:12;;;;;;;0.30;0.20;;;;;;;20.00;65.11;101065.88;5014636;28;20034;-68
2022/07/27 07:45:38;;;;;;;1.00;0.30;;;;;;;20.03;65.50;101065.06;5011631;28;20076;-68
2022/07/27 07:48:04;;;;;;;0.80;0.40;;;;;;;20.21;65.41;101073.88;5014638;28;20477;-68
2022/07/27 07:50:30;;;;;;;1.08;0.30;;;;;;;20.56;65.40;101062.44;5015083;28;20042;-68
2022/07/27 07:52:56;;;;;;;0.77;0.15;;;;;;;20.97;65.02;101065.75;5014163;28;20394;-68
2022/07/27 07:55:25;;;;;;;0.32;0.30;;;;;;;21.38;64.88;101073.72;5013221;28;20038;-68
2022/07/27 07:57:51;;;;;;;1.05;0.22;;;;;;;21.81;61.96;101081.97;5014701;28;20113;-68
2022/07/27 08:00:17;;;;;;;0.95;0.25;;;;;;;21.95;61.23;101070.75;5014244;28;20089;-68
2022/07/27 08:02:51;;;;;;;1.00;0.30;;;;;;;22.36;59.60;101073.81;5014207;28;20099;-68
2022/07/27 08:05:17;;;;;;;0.95;0.20;;;;;;;22.43;57.78;101068.19;5012423;28;20042;-68
2022/07/27 08:07:44;;;;;;;1.48;0.30;;;;;;;22.49;57.77;101076.69;5009587;28;20035;-68
2022/07/27 08:10:11;;;;;;;0.30;0.20;;;;;;;22.31;56.96;101074.31;4993134;28;20030;-68
2022/07/27 08:12:42;;;;;;;1.38;0.40;;;;;;;22.38;56.52;101071.41;5002495;28;20112;-68
2022/07/27 08:15:08;;;;;;;1.30;0.57;;;;;;;22.49;56.76;101073.94;5024546;22;20038;-71
2022/07/27 08:17:34;;;;;;;2.30;0.50;;;;;;;22.71;57.11;101059.31;5013961;28;20502;-71
2022/07/27 08:20:00;;;;;;;3.10;0.40;;;;;;;23.06;55.15;101071.44;5012456;28;20524;-72
2022/07/27 08:22:26;;;;;;;2.00;0.30;;;;;;;23.26;55.47;101072.94;5013616;28;20038;-70
2022/07/27 08:24:52;;;;;;;2.15;0.40;;;;;;;23.48;54.34;101073.16;4993603;28;20042;-70
2022/07/27 08:27:17;;;;;;;0.52;0.47;;;;;;;23.78;53.65;101070.00;5009497;28;20510;-70
2022/07/27 08:29:43;;;;;;;2.10;0.20;;;;;;;23.68;52.32;101062.81;4994313;28;20050;-70
2022/07/27 08:32:08;;;;;;;0.10;0.10;;;;;;;23.62;51.80;101074.75;4999117;28;20084;-72
2022/07/27 08:34:34;;;;;;;0.52;0.20;;;;;;;23.38;52.32;101071.47;5013528;28;20050;-70
2022/07/27 08:36:59;;;;;;;0.50;0.22;;;;;;;23.01;52.04;101074.72;5013303;28;20117;-70
2022/07/27 08:39:25;;;;;;;1.05;0.20;;;;;;;22.54;52.16;101078.91;5013548;28;20026;-69
2022/07/27 08:41:52;;;;;;;0.10;0.10;;;;;;;22.16;53.20;101081.28;4995912;28;20096;-71
2022/07/27 08:44:22;;;;;;;2.95;0.43;;;;;;;22.05;53.16;101086.97;5009064;28;20132;-70
2022/07/27 08:46:49;;;;;;;0.45;0.30;;;;;;;21.85;54.08;101090.94;4993093;28;20116;-70
2022/07/27 08:49:16;;;;;;;0.45;0.10;;;;;;;21.64;54.95;101089.28;4994537;28;20647;-70
2022/07/27 08:51:42;;;;;;;0.60;0.32;;;;;;;21.51;55.25;101083.66;4993949;28;20030;-70
2022/07/27 08:54:09;;;;;;;1.95;0.50;;;;;;;21.48;57.16;101092.72;4993637;28;20030;-70
2022/07/27 08:56:35;;;;;;;1.58;0.25;;;;;;;21.46;58.23;101088.84;4993102;28;20038;-70
2022/07/27 08:59:00;;;;;;;0.20;0.20;;;;;;;21.46;57.94;101100.59;4994475;28;20034;-70
2022/07/27 09:01:26;;;;;;;2.97;0.30;;;;;;;21.35;58.03;101097.25;4993649;28;20037;-70
2022/07/27 09:03:51;;;;;;;0.52;0.22;;;;;;;21.28;57.09;101097.38;4992452;28;20072;-71
2022/07/27 09:06:43;;;;;;;1.40;0.22;;;;;;;21.40;56.90;101090.53;4992860;28;20116;-70
2022/07/27 09:09:11;;;;;;;5.93;0.40;;;;;;;21.60;56.88;101107.81;4993546;28;20505;-70
2022/07/27 09:11:37;;;;;;;0.50;0.32;;;;;;;21.81;56.35;101101.19;4993566;28;20046;-70
2022/07/27 09:14:04;;;;;;;1.08;0.28;;;;;;;22.00;55.71;101095.72;4993040;28;20113;-70
2022/07/27 09:16:30;;;;;;;0.20;0.20;;;;;;;22.37;55.02;101100.06;4992085;28;20119;-70
2022/07/27 09:19:05;;;;;;;0.30;0.30;;;;;;;22.83;54.30;101096.34;4993265;28;20027;-70
2022/07/27 09:21:31;;;;;;;0.30;0.20;;;;;;;23.19;53.53;101103.31;4993379;28;20034;-70
2022/07/27 09:24:08;;;;;;;0.25;0.25;;;;;;;23.45;52.39;101093.28;4993046;28;20439;-70
2022/07/27 09:26:35;;;;;;;0.20;0.20;;;;;;;23.67;52.55;101096.25;4993324;28;20038;-70
2022/07/27 09:29:06;;;;;;;1.05;0.30;;;;;;;23.84;50.90;101103.28;4991856;28;20782;-71
2022/07/27 09:31:40;;;;;;;3.63;0.52;;;;;;;23.77;50.03;101108.97;5007518;28;20049;-70
2022/07/27 09:34:06;;;;;;;0.28;0.20;;;;;;;23.81;51.32;101104.16;5002386;28;20026;-70
2022/07/27 09:36:31;;;;;;;1.70;0.20;;;;;;;23.85;48.42;101104.81;5011808;28;20490;-70
2022/07/27 09:39:01;;;;;;;2.03;0.50;;;;;;;23.97;47.87;101113.13;5012355;28;20402;-71
2022/07/27 09:41:42;;;;;;;0.25;0.15;;;;;;;23.98;47.37;101100.13;5011194;28;20030;-70
2022/07/27 09:44:08;;;;;;;0.85;0.25;;;;;;;23.89;46.73;101098.00;5012506;28;20502;-69
2022/07/27 09:46:37;;;;;;;0.52;0.20;;;;;;;23.86;46.41;101103.59;5010329;28;20045;-70
2022/07/27 09:49:04;;;;;;;0.43;0.20;;;;;;;24.14;46.23;101089.06;5027410;28;20034;-70
2022/07/27 09:51:30;;;;;;;0.35;0.15;;;;;;;24.47;45.49;101106.22;4998488;28;20550;-70
2022/07/27 09:53:58;;;;;;;0.30;0.22;;;;;;;24.49;44.40;101101.81;4992025;28;20026;-70
2022/07/27 09:56:29;;;;;;;1.45;0.15;;;;;;;24.38;45.11;101097.84;5007010;28;20030;-70
2022/07/27 09:58:57;;;;;;;0.45;0.20;;;;;;;24.31;45.97;101095.31;4992478;28;20554;-70
2022/07/27 10:01:25;;;;;;;0.40;0.20;;;;;;;23.81;45.12;101093.13;5010564;28;20045;-70
2022/07/27 10:03:54;;;;;;;2.78;0.52;;;;;;;23.58;46.49;101101.59;5010687;28;20021;-70
2022/07/27 10:06:21;;;;;;;0.20;0.20;;;;;;;23.51;45.04;101091.56;5011367;28;20069;-71
2022/07/27 10:08:48;;;;;;;0.35;0.17;;;;;;;23.56;45.26;101104.00;5011755;28;20085;-70
2022/07/27 10:11:15;;;;;;;0.57;0.30;;;;;;;23.47;45.12;101090.09;5011964;28;20046;-71
2022/07/27 10:13:41;;;;;;;1.23;0.38;;;;;;;23.52;46.52;101095.09;5010544;28;20029;-70
2022/07/27 10:16:12;;;;;;;1.63;0.20;;;;;;;23.74;46.50;101098.81;5010977;28;20505;-70
2022/07/27 10:18:55;;;;;;;1.15;0.50;;;;;;;23.88;46.05;101099.22;5011613;28;20029;-70
2022/07/27 10:21:23;;;;;;;0.52;0.20;;;;;;;23.88;45.50;101092.94;5012067;28;20478;-70
2022/07/27 10:23:57;;;;;;;2.55;0.30;;;;;;;24.03;45.45;101103.16;5011796;28;20041;-70
2022/07/27 10:26:23;;;;;;;3.33;0.30;;;;;;;23.96;45.86;101094.28;4994768;28;20084;-70
2022/07/27 10:29:01;;;;;;;1.60;0.30;;;;;;;24.00;46.04;101106.72;4992013;28;20042;-71
2022/07/27 10:31:36;;;;;;;0.43;0.13;;;;;;;24.04;45.55;101107.44;4991041;28;20391;-70
2022/07/27 10:34:07;;;;;;;0.55;0.17;;;;;;;24.18;45.87;101109.03;4998687;28;20030;-70
2022/07/27 10:36:32;;;;;;;0.57;0.20;;;;;;;24.04;45.28;101106.69;5010407;28;20069;-71
2022/07/27 10:39:01;;;;;;;0.52;0.30;;;;;;;24.07;45.98;101112.09;5011687;28;20124;-70
2022/07/27 10:41:30;;;;;;;0.95;0.32;;;;;;;23.98;47.41;101116.66;5011080;28;20118;-72
2022/07/27 10:44:13;;;;;;;0.60;0.20;;;;;;;24.01;48.19;101113.81;5011176;28;20029;-70
2022/07/27 10:46:55;;;;;;;1.13;0.52;;;;;;;24.37;46.79;101107.31;5009541;28;20042;-70
2022/07/27 10:49:33;;;;;;;2.75;0.30;;;;;;;24.64;46.78;101113.97;5011542;28;20437;-70
2022/07/27 10:52:00;;;;;;;2.63;0.38;;;;;;;24.58;47.73;101112.97;5010145;28;20070;-70
2022/07/27 10:54:31;;;;;;;0.45;0.28;;;;;;;24.54;48.04;101103.28;5010945;28;20034;-70
2022/07/27 10:56:59;;;;;;;0.10;0.10;;;;;;;24.47;48.07;101120.00;5010595;28;20383;-69
2022/07/27 10:59:36;;;;;;;1.50;0.40;;;;;;;24.31;48.98;101122.84;5011775;28;20463;-70
2022/07/27 11:02:04;;;;;;;0.47;0.20;;;;;;;24.12;48.49;101113.53;5011474;28;20375;-69
2022/07/27 11:04:30;;;;;;;0.32;0.10;;;;;;;24.09;48.18;101117.94;4992769;28;20030;-71
2022/07/27 11:07:01;;;;;;;0.80;0.30;;;;;;;24.33;48.68;101112.91;5006261;28;20092;-70
2022/07/27 11:09:39;;;;;;;1.45;0.30;;;;;;;24.67;48.80;101113.09;4991778;28;20037;-69
2022/07/27 11:12:07;;;;;;;0.30;0.22;;;;;;;24.63;47.21;101106.13;4991659;28;20505;-69
2022/07/27 11:14:53;;;;;;;2.13;0.68;;;;;;;24.82;45.64;101116.97;4991267;28;20598;-69
2022/07/27 11:17:22;;;;;;;1.20;0.20;;;;;;;24.71;45.89;101111.00;5006837;28;20116;-69
2022/07/27 11:19:59;;;;;;;0.08;0.08;;;;;;;24.56;44.41;101112.66;4990489;28;20648;-69
2022/07/27 11:22:36;;;;;;;1.02;0.20;;;;;;;24.40;44.77;101121.00;5001746;28;20127;-69
2022/07/27 11:25:03;;;;;;;2.40;0.38;;;;;;;24.54;45.60;101106.03;4990501;28;20376;-71
2022/07/27 11:27:28;;;;;;;0.50;0.38;;;;;;;24.88;44.79;101109.72;4990155;28;20037;-69
2022/07/27 11:29:54;;;;;;;0.73;0.30;;;;;;;25.10;43.15;101115.31;5006398;28;20031;-69
2022/07/27 11:32:20;;;;;;;0.98;0.25;;;;;;;25.27;43.52;101118.72;4991474;28;20407;-69
2022/07/27 11:34:46;;;;;;;0.85;0.10;;;;;;;25.60;43.49;101108.97;5002834;28;20032;-70